createdAt,value
2022-09-09T00:01:55.433Z,93.90
2022-09-09T00:04:29.928Z,93.90
2022-09-09T00:07:18.604Z,93.70
2022-09-09T00:10:00.177Z,93.90
2022-09-09T00:12:50.601Z,93.90
2022-09-09T00:15:24.506Z,94.00
2022-09-09T00:17:58.859Z,94.20
2022-09-09T00:20:53.049Z,94.10
2022-09-09T00:23:30.121Z,94.10
2022-09-09T00:26:28.829Z,94.50
2022-09-09T00:29:15.748Z,94.80
2022-09-09T00:31:42.643Z,94.80
2022-09-09T00:34:21.457Z,94.50
2022-09-09T00:36:52.170Z,94.50
2022-09-09T00:39:38.170Z,94.50
2022-09-09T00:42:19.368Z,94.00
2022-09-09T00:45:18.391Z,93.90
2022-09-09T00:47:50.581Z,93.50
2022-09-09T00:50:56.204Z,93.70
2022-09-09T00:53:59.504Z,93.60
2022-09-09T00:56:36.189Z,93.40
2022-09-09T00:59:28.723Z,93.70
2022-09-09T01:01:56.605Z,94.30
2022-09-09T01:04:33.526Z,94.30
2022-09-09T01:07:14.178Z,94.90
2022-09-09T01:09:57.324Z,94.60
2022-09-09T01:12:47.972Z,94.40
2022-09-09T01:15:23.949Z,93.70
2022-09-09T01:18:02.416Z,93.60
2022-09-09T01:21:01.285Z,94.20
2022-09-09T01:24:00.142Z,94.70
2022-09-09T01:26:30.458Z,94.20
2022-09-09T01:29:00.661Z,94.60
2022-09-09T01:32:03.832Z,94.80
2022-09-09T01:34:41.149Z,94.90
2022-09-09T01:37:13.214Z,94.90
2022-09-09T01:39:45.292Z,94.40
2022-09-09T01:42:17.336Z,94.00
2022-09-09T01:44:44.937Z,94.20
2022-09-09T01:47:11.636Z,93.70
2022-09-09T01:49:53.994Z,93.70
2022-09-09T01:52:25.081Z,93.70
2022-09-09T01:54:51.795Z,94.20
2022-09-09T01:57:28.770Z,94.50
2022-09-09T02:00:14.683Z,94.40
2022-09-09T02:02:50.606Z,94.00
2022-09-09T02:05:37.797Z,93.90
2022-09-09T02:08:12.898Z,94.20
2022-09-09T02:11:02.732Z,94.40
2022-09-09T02:13:39.179Z,94.40
2022-09-09T02:16:19.943Z,94.70
2022-09-09T02:19:00.101Z,94.40
2022-09-09T02:21:37.834Z,94.20
2022-09-09T02:24:10.733Z,94.70
2022-09-09T02:26:47.270Z,94.70
2022-09-09T02:29:21.274Z,94.80
2022-09-09T02:31:50.540Z,94.20
2022-09-09T02:34:24.578Z,94.30
2022-09-09T02:36:54.607Z,94.40
2022-09-09T02:39:21.325Z,94.60
2022-09-09T02:41:50.224Z,94.40
2022-09-09T02:44:18.820Z,94.40
2022-09-09T02:47:06.094Z,94.40
2022-09-09T02:49:57.180Z,95.40
2022-09-09T02:52:53.365Z,95.60
2022-09-09T02:56:02.112Z,95.70
2022-09-09T02:58:29.795Z,95.80
2022-09-09T03:01:03.840Z,95.90
2022-09-09T03:03:31.901Z,95.60
2022-09-09T03:06:00.921Z,96.50
2022-09-09T03:08:28.655Z,96.20
2022-09-09T03:11:02.032Z,96.10
2022-09-09T03:13:31.176Z,97.00
2022-09-09T03:15:57.900Z,96.40
2022-09-09T03:18:25.168Z,96.70
2022-09-09T03:20:55.019Z,96.60
2022-09-09T03:23:22.630Z,96.70
2022-09-09T03:25:50.768Z,96.80
2022-09-09T03:28:21.579Z,97.10
2022-09-09T03:30:49.926Z,96.90
2022-09-09T03:33:17.175Z,96.90
2022-09-09T03:35:49.634Z,96.70
2022-09-09T03:38:18.355Z,97.10
2022-09-09T03:40:56.548Z,97.60
2022-09-09T03:43:25.155Z,97.50
2022-09-09T03:45:54.190Z,97.70
2022-09-09T03:48:20.845Z,97.40
2022-09-09T03:50:53.134Z,97.60
2022-09-09T03:53:21.932Z,97.40
2022-09-09T03:55:50.923Z,97.70
2022-09-09T03:58:20.629Z,97.20
2022-09-09T04:01:04.140Z,96.70
2022-09-09T04:03:31.316Z,96.60
2022-09-09T04:06:00.480Z,96.20
2022-09-09T04:08:29.341Z,96.40
2022-09-09T04:10:58.870Z,96.60
2022-09-09T04:13:27.394Z,96.60
2022-09-09T04:15:56.824Z,96.20
2022-09-09T04:18:23.757Z,95.80
2022-09-09T04:20:51.897Z,96.30
2022-09-09T04:23:21.605Z,96.40
2022-09-09T04:25:50.962Z,96.90
2022-09-09T04:28:20.407Z,96.80
2022-09-09T04:30:47.613Z,96.90
2022-09-09T04:33:15.203Z,97.60
2022-09-09T04:35:47.942Z,96.80
2022-09-09T04:38:16.959Z,96.90
2022-09-09T04:40:47.476Z,96.60
2022-09-09T04:43:15.685Z,97.00
2022-09-09T04:45:44.874Z,97.20
2022-09-09T04:48:11.629Z,97.30
2022-09-09T04:50:38.280Z,96.80
2022-09-09T04:53:06.124Z,97.20
2022-09-09T04:55:35.295Z,97.40
2022-09-09T04:58:09.282Z,97.60
2022-09-09T05:00:36.818Z,97.90
2022-09-09T05:03:06.883Z,97.90
2022-09-09T05:05:37.564Z,97.50
2022-09-09T05:08:09.827Z,97.30
2022-09-09T05:10:39.083Z,96.90
2022-09-09T05:13:07.395Z,97.70
2022-09-09T05:15:34.673Z,97.70
2022-09-09T05:18:03.402Z,97.90
2022-09-09T05:20:32.712Z,97.30
2022-09-09T05:22:59.765Z,97.30
2022-09-09T05:25:29.464Z,97.50
2022-09-09T05:27:57.337Z,97.10
2022-09-09T05:30:27.251Z,96.20
2022-09-09T05:32:57.189Z,96.70
2022-09-09T05:35:24.001Z,97.10
2022-09-09T05:37:50.693Z,96.70
2022-09-09T05:40:17.396Z,97.30
2022-09-09T05:42:44.145Z,97.00
2022-09-09T05:45:11.016Z,96.90
2022-09-09T05:47:39.065Z,97.00
2022-09-09T05:50:08.877Z,97.40
2022-09-09T05:52:35.522Z,97.00
2022-09-09T05:55:02.250Z,97.50
2022-09-09T05:57:29.420Z,97.90
2022-09-09T05:59:56.149Z,97.20
2022-09-09T06:02:22.915Z,97.70
2022-09-09T06:04:50.489Z,97.00
2022-09-09T06:07:17.623Z,97.80
2022-09-09T06:09:44.273Z,97.70
2022-09-09T06:12:12.524Z,96.80
2022-09-09T06:14:44.395Z,96.90
2022-09-09T06:17:12.965Z,96.90
2022-09-09T06:19:39.794Z,97.10
2022-09-09T06:22:07.405Z,97.60
2022-09-09T06:24:36.921Z,97.30
2022-09-09T06:27:04.166Z,97.40
2022-09-09T06:29:34.401Z,97.10
2022-09-09T06:32:02.424Z,96.90
2022-09-09T06:34:29.396Z,96.90
2022-09-09T06:36:59.253Z,96.50
2022-09-09T06:39:29.850Z,96.50
2022-09-09T06:41:56.612Z,96.80
2022-09-09T06:44:51.256Z,95.80
2022-09-09T06:47:36.427Z,95.30
2022-09-09T06:50:04.088Z,95.60
2022-09-09T06:52:35.410Z,95.40
2022-09-09T06:55:03.633Z,94.90
2022-09-09T06:57:37.359Z,95.10
2022-09-09T07:00:07.302Z,95.20
2022-09-09T07:02:39.787Z,94.90
2022-09-09T07:05:07.469Z,95.40
2022-09-09T07:07:35.203Z,95.60
2022-09-09T07:10:01.990Z,95.70
2022-09-09T07:12:29.305Z,95.20
2022-09-09T07:14:59.370Z,94.70
2022-09-09T07:17:26.116Z,94.60
2022-09-09T07:19:53.210Z,94.70
2022-09-09T07:22:21.076Z,93.80
2022-09-09T07:24:47.832Z,93.40
2022-09-09T07:27:15.401Z,93.20
2022-09-09T07:29:42.480Z,92.00
2022-09-09T07:32:10.728Z,92.30
2022-09-09T07:34:38.343Z,92.30
2022-09-09T07:37:06.197Z,92.10
2022-09-09T07:39:33.734Z,91.30
2022-09-09T07:42:00.438Z,90.80
2022-09-09T07:44:28.176Z,91.00
2022-09-09T07:47:01.577Z,90.70
2022-09-09T07:49:35.121Z,90.40
2022-09-09T07:52:04.396Z,90.40
2022-09-09T07:54:32.985Z,90.30
2022-09-09T07:57:00.998Z,89.80
2022-09-09T07:59:30.835Z,89.90
2022-09-09T08:01:59.401Z,89.60
2022-09-09T08:04:29.416Z,89.50
2022-09-09T08:06:59.085Z,89.10
2022-09-09T08:09:30.121Z,89.30
2022-09-09T08:12:21.301Z,88.90
2022-09-09T08:14:49.461Z,89.30
2022-09-09T08:17:16.543Z,88.00
2022-09-09T08:19:45.465Z,87.00
2022-09-09T08:22:17.153Z,86.50
2022-09-09T08:24:44.739Z,87.20
2022-09-09T08:27:11.533Z,87.40
2022-09-09T08:29:39.441Z,88.10
2022-09-09T08:32:06.797Z,88.90
2022-09-09T08:34:34.950Z,88.60
2022-09-09T08:37:05.991Z,87.90
2022-09-09T08:39:37.834Z,86.70
2022-09-09T08:42:14.565Z,85.90
2022-09-09T08:44:57.149Z,85.20
2022-09-09T08:47:47.017Z,84.40
2022-09-09T08:50:28.957Z,84.20
2022-09-09T08:53:09.397Z,83.10
2022-09-09T08:55:44.340Z,83.90
2022-09-09T08:58:35.150Z,84.50
2022-09-09T09:01:10.738Z,83.50
2022-09-09T09:04:05.689Z,83.60
2022-09-09T09:06:36.950Z,83.20
2022-09-09T09:09:43.981Z,82.70
2022-09-09T09:12:36.859Z,82.00
2022-09-09T09:15:11.906Z,81.40
2022-09-09T09:17:39.727Z,80.50
2022-09-09T09:20:14.423Z,81.10
2022-09-09T09:22:51.601Z,81.80
2022-09-09T09:25:23.461Z,82.20
2022-09-09T09:28:01.609Z,81.90
2022-09-09T09:30:36.347Z,82.60
2022-09-09T09:33:18.983Z,83.40
2022-09-09T09:35:47.339Z,83.70
2022-09-09T09:41:10.465Z,83.80
2022-09-09T09:43:43.483Z,83.20
2022-09-09T09:46:28.294Z,81.30
2022-09-09T09:49:03.740Z,81.10
2022-09-09T09:51:33.869Z,81.50
2022-09-09T09:54:28.526Z,81.10
2022-09-09T09:57:12.671Z,81.30
2022-09-09T09:59:41.219Z,82.80
2022-09-09T10:02:27.625Z,82.10
2022-09-09T10:05:26.837Z,82.30
2022-09-09T10:08:12.285Z,83.50
2022-09-09T10:10:48.301Z,84.80
2022-09-09T10:13:30.281Z,83.40
2022-09-09T10:16:25.137Z,83.60
2022-09-09T10:19:20.148Z,81.20
2022-09-09T10:22:00.941Z,79.00
2022-09-09T10:24:50.205Z,76.80
2022-09-09T10:27:45.251Z,76.80
2022-09-09T10:30:19.582Z,77.00
2022-09-09T10:36:10.215Z,76.40
2022-09-09T10:38:47.424Z,75.70
2022-09-09T10:41:52.292Z,77.30
2022-09-09T10:44:46.265Z,77.00
2022-09-09T10:47:29.236Z,77.90
2022-09-09T10:50:01.645Z,78.20
2022-09-09T10:52:34.053Z,79.00
2022-09-09T10:55:11.233Z,78.60
2022-09-09T10:57:53.044Z,78.40
2022-09-09T11:00:21.557Z,77.10
2022-09-09T11:03:08.289Z,74.70
2022-09-09T11:06:01.286Z,74.10
2022-09-09T11:08:30.921Z,73.60
2022-09-09T11:11:33.073Z,73.70
2022-09-09T11:14:20.895Z,74.40
2022-09-09T11:16:54.525Z,73.80
2022-09-09T11:19:40.436Z,73.40
2022-09-09T11:22:33.224Z,73.70
2022-09-09T11:25:10.825Z,74.10
2022-09-09T11:27:56.315Z,74.50
2022-09-09T11:30:56.169Z,73.80
2022-09-09T11:33:50.988Z,72.30
2022-09-09T11:36:31.392Z,71.70
2022-09-09T11:39:20.305Z,71.30
2022-09-09T11:41:47.044Z,71.10
2022-09-09T11:44:19.048Z,70.80
2022-09-09T11:46:49.225Z,70.00
2022-09-09T11:49:46.513Z,71.10
2022-09-09T11:52:22.288Z,72.00
2022-09-09T11:54:51.101Z,72.20
2022-09-09T11:57:26.974Z,71.40
2022-09-09T11:59:54.078Z,72.90
2022-09-09T12:02:27.556Z,73.60
2022-09-09T12:05:06.713Z,74.20
2022-09-09T12:07:39.200Z,73.70
2022-09-09T12:10:37.256Z,72.40
2022-09-09T12:13:21.596Z,72.20
2022-09-09T12:15:54.594Z,71.00
2022-09-09T12:18:26.609Z,71.70
2022-09-09T12:21:37.441Z,72.00
2022-09-09T12:24:10.029Z,72.90
2022-09-09T12:26:36.683Z,72.90
2022-09-09T12:29:25.327Z,72.50
2022-09-09T12:32:21.122Z,71.90
2022-09-09T12:35:02.136Z,70.90
2022-09-09T12:37:34.238Z,70.90
2022-09-09T12:40:07.515Z,71.10
2022-09-09T12:42:37.931Z,69.70
2022-09-09T12:45:18.114Z,69.20
2022-09-09T12:47:57.088Z,67.60
2022-09-09T12:50:33.029Z,66.60
2022-09-09T12:53:04.702Z,66.60
2022-09-09T12:55:38.770Z,67.40
2022-09-09T12:58:07.087Z,67.60
2022-09-09T13:00:35.556Z,67.80
2022-09-09T13:03:16.901Z,69.00
2022-09-09T13:05:43.561Z,70.20
2022-09-09T13:08:12.637Z,70.40
2022-09-09T13:10:54.734Z,70.90
2022-09-09T13:13:28.003Z,71.30
2022-09-09T13:16:00.256Z,70.90
2022-09-09T13:18:40.261Z,69.70
2022-09-09T13:21:07.816Z,69.70
2022-09-09T13:23:37.822Z,68.70
2022-09-09T13:26:28.122Z,66.60
2022-09-09T13:28:56.483Z,66.80
2022-09-09T13:31:31.011Z,67.90
2022-09-09T13:33:59.086Z,68.70
2022-09-09T13:36:35.664Z,68.70
2022-09-09T13:39:05.574Z,69.20
2022-09-09T13:41:45.650Z,68.90
2022-09-09T13:44:29.355Z,69.60
2022-09-09T13:47:21.417Z,67.60
2022-09-09T13:49:48.274Z,68.40
2022-09-09T13:52:17.850Z,68.80
2022-09-09T13:54:52.114Z,69.10
2022-09-09T13:57:26.460Z,69.40
2022-09-09T14:00:11.098Z,69.40
2022-09-09T14:02:39.816Z,70.50
2022-09-09T14:05:06.839Z,71.60
2022-09-09T14:07:33.608Z,71.50
2022-09-09T14:10:01.147Z,72.20
2022-09-09T14:12:28.051Z,72.60
2022-09-09T14:14:54.818Z,73.80
2022-09-09T14:17:23.155Z,74.30
2022-09-09T14:19:49.804Z,76.40
2022-09-09T14:22:16.631Z,81.60
2022-09-09T14:24:43.603Z,82.50
2022-09-09T14:27:10.384Z,82.10
2022-09-09T14:29:37.076Z,82.50
2022-09-09T14:32:04.142Z,83.10
2022-09-09T14:34:32.777Z,81.60
2022-09-09T14:36:59.970Z,82.50
2022-09-09T14:39:27.209Z,81.90
2022-09-09T14:41:53.916Z,80.00
2022-09-09T14:44:20.544Z,78.40
2022-09-09T14:46:47.189Z,77.20
2022-09-09T14:49:13.970Z,77.40
2022-09-09T14:51:40.772Z,77.90
2022-09-09T14:54:07.519Z,76.60
2022-09-09T14:56:38.815Z,77.30
2022-09-09T14:59:05.957Z,79.20
2022-09-09T15:01:33.166Z,80.20
2022-09-09T15:04:01.973Z,79.50
2022-09-09T15:06:30.921Z,79.00
2022-09-09T15:09:01.402Z,78.50
2022-09-09T15:11:38.440Z,79.00
2022-09-09T15:14:06.318Z,79.80
2022-09-09T15:16:33.281Z,79.70
2022-09-09T15:19:01.809Z,79.60
2022-09-09T15:21:31.897Z,78.40
2022-09-09T15:23:59.097Z,79.20
2022-09-09T15:26:27.018Z,79.10
2022-09-09T15:28:55.086Z,79.30
2022-09-09T15:31:24.191Z,81.60
2022-09-09T15:34:02.073Z,80.90
2022-09-09T15:36:30.213Z,80.40
2022-09-09T15:38:57.231Z,79.60
2022-09-09T15:41:24.125Z,81.50
2022-09-09T15:43:53.871Z,83.10
2022-09-09T15:46:28.150Z,82.60
2022-09-09T15:48:57.508Z,81.70
2022-09-09T15:51:41.845Z,80.30
2022-09-09T15:54:11.087Z,83.20
2022-09-09T15:56:37.734Z,81.90
2022-09-09T15:59:04.913Z,79.50
2022-09-09T16:01:33.286Z,82.50
2022-09-09T16:04:00.962Z,83.80
2022-09-09T16:06:29.660Z,82.30
2022-09-09T16:08:58.826Z,83.30
2022-09-09T16:11:33.609Z,84.30
2022-09-09T16:14:01.110Z,84.70
2022-09-09T16:16:29.709Z,85.00
2022-09-09T16:18:59.105Z,85.70
2022-09-09T16:21:32.432Z,85.50
2022-09-09T16:24:02.861Z,84.50
2022-09-09T16:26:32.760Z,83.10
2022-09-09T16:29:00.543Z,84.10
2022-09-09T16:31:28.747Z,84.50
2022-09-09T16:33:57.090Z,83.30
2022-09-09T16:36:26.560Z,84.20
2022-09-09T16:38:58.585Z,84.30
2022-09-09T16:41:28.580Z,84.30
2022-09-09T16:43:57.559Z,84.20
2022-09-09T16:46:25.257Z,85.10
2022-09-09T16:48:53.044Z,86.10
2022-09-09T16:51:25.530Z,86.80
2022-09-09T16:53:53.373Z,86.00
2022-09-09T16:56:22.829Z,85.90
2022-09-09T16:58:56.113Z,85.70
2022-09-09T17:01:28.382Z,86.00
2022-09-09T17:04:00.645Z,87.00
2022-09-09T17:06:29.820Z,87.50
2022-09-09T17:08:58.116Z,88.40
2022-09-09T17:11:25.421Z,89.00
2022-09-09T17:13:53.478Z,89.30
2022-09-09T17:16:22.730Z,89.70
2022-09-09T17:18:51.373Z,89.50
2022-09-09T17:21:21.793Z,89.40
2022-09-09T17:23:48.865Z,89.50
2022-09-09T17:26:18.996Z,89.00
2022-09-09T17:28:49.184Z,89.30
2022-09-09T17:31:17.927Z,88.80
2022-09-09T17:33:49.308Z,89.40
2022-09-09T17:36:17.495Z,90.20
2022-09-09T17:38:45.109Z,90.40
2022-09-09T17:41:15.852Z,89.20
2022-09-09T17:43:43.361Z,89.20
2022-09-09T17:46:22.445Z,88.50
2022-09-09T17:48:51.786Z,89.30
2022-09-09T17:51:24.599Z,89.90
2022-09-09T17:53:52.227Z,88.60
2022-09-09T17:56:20.994Z,87.60
2022-09-09T17:58:51.486Z,87.40
2022-09-09T18:01:24.453Z,88.00
2022-09-09T18:03:52.299Z,88.10
2022-09-09T18:06:22.800Z,89.20
2022-09-09T18:08:54.319Z,89.20
2022-09-09T18:11:23.578Z,89.40
2022-09-09T18:13:51.549Z,89.50
2022-09-09T18:16:18.635Z,89.80
2022-09-09T18:18:46.657Z,90.10
2022-09-09T18:21:14.085Z,90.30
2022-09-09T18:23:47.185Z,89.20
2022-09-09T18:26:19.807Z,88.40
2022-09-09T18:28:53.617Z,88.10
2022-09-09T18:31:23.605Z,89.10
2022-09-09T18:33:53.169Z,89.60
2022-09-09T18:36:22.397Z,89.30
2022-09-09T18:38:49.647Z,89.70
2022-09-09T18:41:27.169Z,90.90
2022-09-09T18:43:57.338Z,91.10
2022-09-09T18:46:25.605Z,91.50
2022-09-09T18:48:52.338Z,91.90
2022-09-09T18:51:21.887Z,92.00
2022-09-09T18:53:52.717Z,92.00
2022-09-09T18:56:19.567Z,92.40
2022-09-09T18:58:47.697Z,92.20
2022-09-09T19:01:15.611Z,90.90
2022-09-09T19:03:42.493Z,90.80
2022-09-09T19:06:14.991Z,91.90
2022-09-09T19:08:43.232Z,92.10
2022-09-09T19:11:13.508Z,92.90
2022-09-09T19:13:40.447Z,93.40
2022-09-09T19:16:13.242Z,93.20
2022-09-09T19:18:41.093Z,92.40
2022-09-09T19:21:11.980Z,91.80
2022-09-09T19:23:39.029Z,92.10
2022-09-09T19:26:06.348Z,92.30
2022-09-09T19:28:35.301Z,91.50
2022-09-09T19:31:06.550Z,92.20
2022-09-09T19:33:33.857Z,92.10
2022-09-09T19:36:03.034Z,92.20
2022-09-09T19:38:30.348Z,91.70
2022-09-09T19:41:02.090Z,92.00
2022-09-09T19:43:29.138Z,93.00
2022-09-09T19:46:07.298Z,92.10
2022-09-09T19:48:37.347Z,93.10
2022-09-09T19:51:06.398Z,93.70
2022-09-09T19:53:36.142Z,94.40
2022-09-09T19:56:04.077Z,94.60
2022-09-09T19:58:33.499Z,94.50
2022-09-09T20:01:07.524Z,93.60
2022-09-09T20:03:38.108Z,93.60
2022-09-09T20:06:09.518Z,94.20
2022-09-09T20:08:37.521Z,94.00
2022-09-09T20:11:05.096Z,94.00
2022-09-09T20:13:33.957Z,93.30
2022-09-09T20:16:03.849Z,93.90
2022-09-09T20:18:32.386Z,94.90
2022-09-09T20:21:15.364Z,95.30
2022-09-09T20:23:43.274Z,95.00
2022-09-09T20:26:12.892Z,95.50
2022-09-09T20:28:41.158Z,95.70
2022-09-09T20:31:14.839Z,96.10
2022-09-09T20:33:43.171Z,95.80
2022-09-09T20:36:23.592Z,95.50
2022-09-09T20:38:55.538Z,95.50
2022-09-09T20:41:22.881Z,95.80
2022-09-09T20:43:51.921Z,95.10
2022-09-09T20:46:24.918Z,95.60
2022-09-09T20:48:52.642Z,95.00
2022-09-09T20:51:23.523Z,94.60
2022-09-09T20:54:03.712Z,94.80
2022-09-09T20:56:33.729Z,94.30
2022-09-09T20:59:01.215Z,94.70
2022-09-09T21:01:28.301Z,95.10
2022-09-09T21:03:55.573Z,95.90
2022-09-09T21:06:22.744Z,95.60
2022-09-09T21:08:49.917Z,96.30
2022-09-09T21:11:17.431Z,96.50
2022-09-09T21:13:44.792Z,97.30
2022-09-09T21:16:15.380Z,96.70
2022-09-09T21:18:44.325Z,97.70
2022-09-09T21:21:11.233Z,96.20
2022-09-09T21:23:38.671Z,97.00
2022-09-09T21:26:06.565Z,96.10
2022-09-09T21:28:34.475Z,96.20
2022-09-09T21:31:01.636Z,96.30
2022-09-09T21:33:28.720Z,96.50
2022-09-09T21:36:02.725Z,97.70
2022-09-09T21:38:29.751Z,97.50
2022-09-09T21:40:56.689Z,97.50
2022-09-09T21:43:26.391Z,97.80
2022-09-09T21:45:53.590Z,97.10
2022-09-09T21:48:20.274Z,97.20
2022-09-09T21:50:48.077Z,96.50
2022-09-09T21:53:18.896Z,96.90
2022-09-09T21:55:46.508Z,97.70
2022-09-09T21:58:14.295Z,97.90
2022-09-09T22:00:42.509Z,97.60
2022-09-09T22:03:09.427Z,97.40
2022-09-09T22:05:40.972Z,97.30
2022-09-09T22:08:08.435Z,97.40
2022-09-09T22:10:40.568Z,97.20
2022-09-09T22:13:07.800Z,96.80
2022-09-09T22:15:36.259Z,96.70
2022-09-09T22:18:03.928Z,97.50
2022-09-09T22:20:33.318Z,97.10
2022-09-09T22:23:00.824Z,97.60
2022-09-09T22:25:28.334Z,98.30
2022-09-09T22:27:55.920Z,98.30
2022-09-09T22:30:22.625Z,98.30
2022-09-09T22:32:50.865Z,98.30
2022-09-09T22:35:17.563Z,98.00
2022-09-09T22:37:44.354Z,98.00
2022-09-09T22:40:12.144Z,97.70
2022-09-09T22:42:38.761Z,98.00
2022-09-09T22:45:06.030Z,98.00
2022-09-09T22:47:33.777Z,98.00
2022-09-09T22:50:01.832Z,98.10
2022-09-09T22:52:31.731Z,98.30
2022-09-09T22:54:59.065Z,98.30
2022-09-09T22:57:26.337Z,98.10
2022-09-09T22:59:53.004Z,97.80
2022-09-09T23:02:21.703Z,96.90
2022-09-09T23:04:48.657Z,96.70
2022-09-09T23:07:19.706Z,97.60
2022-09-09T23:09:47.556Z,98.00
2022-09-09T23:12:14.788Z,98.30
2022-09-09T23:14:41.503Z,98.30
2022-09-09T23:17:08.660Z,98.00
2022-09-09T23:19:37.003Z,98.10
2022-09-09T23:22:03.724Z,97.80
2022-09-09T23:24:30.343Z,97.70
2022-09-09T23:26:56.956Z,98.30
2022-09-09T23:29:23.588Z,98.30
2022-09-09T23:31:50.228Z,98.30
2022-09-09T23:34:16.976Z,97.70
2022-09-09T23:36:43.857Z,98.30
2022-09-09T23:39:11.649Z,98.10
2022-09-09T23:41:40.082Z,98.30
2022-09-09T23:44:07.368Z,98.00
2022-09-09T23:46:35.309Z,98.10
2022-09-09T23:49:03.707Z,97.50
2022-09-09T23:51:31.823Z,97.80
2022-09-09T23:54:03.685Z,97.60
2022-09-09T23:56:37.653Z,97.30
2022-09-09T23:59:05.745Z,97.80
